createdAt,value
2019-04-30T00:02:40.940Z,7.32
2019-04-30T00:05:37.716Z,7.30
2019-04-30T00:08:38.999Z,7.29
2019-04-30T00:11:31.876Z,7.25
2019-04-30T00:14:36.994Z,7.27
2019-04-30T00:17:25.718Z,7.27
2019-04-30T00:20:22.169Z,7.27
2019-04-30T00:23:22.566Z,7.29
2019-04-30T00:26:17.062Z,7.30
2019-04-30T00:29:12.399Z,7.28
2019-04-30T00:32:08.166Z,7.28
2019-04-30T00:35:07.022Z,7.26
2019-04-30T00:38:01.338Z,7.26
2019-04-30T00:41:01.910Z,7.26
2019-04-30T00:43:52.716Z,7.25
2019-04-30T00:46:50.384Z,7.26
2019-04-30T00:49:47.336Z,7.27
2019-04-30T00:52:45.668Z,7.27
2019-04-30T00:55:44.237Z,7.25
2019-04-30T00:58:37.343Z,7.23
2019-04-30T01:01:50.751Z,7.21
2019-04-30T01:05:00.188Z,7.26
2019-04-30T01:07:55.029Z,7.27
2019-04-30T01:10:51.144Z,7.28
2019-04-30T01:13:52.588Z,7.26
2019-04-30T01:16:44.517Z,7.28
2019-04-30T01:19:41.381Z,7.28
2019-04-30T01:22:38.756Z,7.28
2019-04-30T01:25:34.588Z,7.28
2019-04-30T01:28:31.193Z,7.31
2019-04-30T01:31:31.630Z,7.32
2019-04-30T01:34:24.178Z,7.35
2019-04-30T01:37:24.665Z,7.35
2019-04-30T01:40:16.254Z,7.37
2019-04-30T01:43:11.849Z,7.35
2019-04-30T01:46:13.917Z,7.34
2019-04-30T01:49:06.057Z,7.34
2019-04-30T01:52:02.875Z,7.35
2019-04-30T01:54:59.302Z,7.35
2019-04-30T01:58:15.469Z,7.34
2019-04-30T02:01:14.482Z,7.37
2019-04-30T02:04:10.044Z,7.40
2019-04-30T02:07:06.388Z,7.38
2019-04-30T02:10:03.264Z,7.38
2019-04-30T02:12:59.881Z,7.39
2019-04-30T02:15:56.495Z,7.37
2019-04-30T02:18:53.123Z,7.36
2019-04-30T02:21:49.792Z,7.38
2019-04-30T02:24:45.451Z,7.38
2019-04-30T02:27:41.439Z,7.38
2019-04-30T02:30:40.480Z,7.38
2019-04-30T02:33:34.350Z,7.37
2019-04-30T02:36:54.149Z,7.38
2019-04-30T02:39:50.744Z,7.37
2019-04-30T02:42:49.766Z,7.38
2019-04-30T02:45:43.165Z,7.41
2019-04-30T02:48:40.931Z,7.43
2019-04-30T02:51:36.464Z,7.44
2019-04-30T02:54:39.831Z,7.45
2019-04-30T02:57:35.374Z,7.48
2019-04-30T03:00:33.289Z,7.45
2019-04-30T03:03:29.996Z,7.47
2019-04-30T03:06:25.209Z,7.48
2019-04-30T03:09:21.442Z,7.51
2019-04-30T03:12:17.107Z,7.52
2019-04-30T03:15:14.795Z,7.52
2019-04-30T03:18:24.277Z,7.49
2019-04-30T03:21:25.839Z,7.48
2019-04-30T03:24:21.621Z,7.47
2019-04-30T03:27:20.655Z,7.48
2019-04-30T03:30:15.900Z,7.50
2019-04-30T03:33:13.517Z,7.52
2019-04-30T03:36:12.548Z,7.53
2019-04-30T03:39:06.123Z,7.51
2019-04-30T03:42:02.697Z,7.50
2019-04-30T03:44:59.276Z,7.52
2019-04-30T03:47:54.477Z,7.52
2019-04-30T03:50:56.562Z,7.53
2019-04-30T03:53:50.182Z,7.56
2019-04-30T03:56:44.666Z,7.57
2019-04-30T03:59:41.261Z,7.58
2019-04-30T04:02:50.111Z,7.57
2019-04-30T04:05:59.559Z,7.58
2019-04-30T04:09:12.736Z,7.58
2019-04-30T04:12:23.586Z,7.57
2019-04-30T04:15:21.201Z,7.59
2019-04-30T04:18:17.054Z,7.59
2019-04-30T04:21:20.788Z,7.61
2019-04-30T04:24:15.691Z,7.63
2019-04-30T04:27:13.600Z,7.64
2019-04-30T04:30:10.612Z,7.64
2019-04-30T04:33:05.825Z,7.66
2019-04-30T04:36:01.323Z,7.68
2019-04-30T04:39:00.102Z,7.69
2019-04-30T04:41:55.925Z,7.69
2019-04-30T04:44:52.699Z,7.71
2019-04-30T04:47:50.411Z,7.74
2019-04-30T04:50:44.616Z,7.76
2019-04-30T04:53:40.872Z,7.78
2019-04-30T04:56:39.859Z,7.80
2019-04-30T04:59:33.401Z,7.83
2019-04-30T05:02:50.625Z,7.83
2019-04-30T05:05:47.185Z,7.84
2019-04-30T05:08:41.800Z,7.84
2019-04-30T05:11:39.556Z,7.90
2019-04-30T05:14:35.078Z,7.91
2019-04-30T05:17:32.815Z,7.93
2019-04-30T05:20:29.659Z,7.94
2019-04-30T05:23:25.918Z,7.97
2019-04-30T05:26:22.911Z,8.01
2019-04-30T05:29:19.296Z,8.03
2019-04-30T05:32:16.635Z,8.06
2019-04-30T05:35:13.312Z,8.08
2019-04-30T05:38:09.290Z,8.09
2019-04-30T05:41:05.438Z,8.09
2019-04-30T05:44:03.162Z,8.12
2019-04-30T05:46:59.236Z,8.13
2019-04-30T05:49:55.487Z,8.15
2019-04-30T05:52:51.999Z,8.18
2019-04-30T05:55:49.926Z,8.19
2019-04-30T05:58:46.225Z,8.22
2019-04-30T06:01:48.085Z,8.28
2019-04-30T06:04:38.776Z,8.34
2019-04-30T06:07:36.383Z,8.42
2019-04-30T06:10:46.111Z,8.46
2019-04-30T06:13:53.001Z,8.53
2019-04-30T06:16:49.264Z,8.56
2019-04-30T06:19:45.483Z,8.64
2019-04-30T06:22:44.079Z,8.67
2019-04-30T06:25:55.790Z,8.71
2019-04-30T06:28:36.506Z,8.78
2019-04-30T06:31:37.249Z,8.80
2019-04-30T06:34:29.594Z,8.82
2019-04-30T06:37:26.156Z,8.81
2019-04-30T06:40:21.163Z,8.85
2019-04-30T06:43:19.105Z,8.85
2019-04-30T06:46:14.717Z,8.87
2019-04-30T06:49:11.268Z,8.87
2019-04-30T06:52:18.185Z,8.87
2019-04-30T06:55:03.728Z,8.86
2019-04-30T06:58:12.192Z,8.84
2019-04-30T07:00:59.587Z,8.84
2019-04-30T07:03:58.861Z,8.85
2019-04-30T07:06:52.203Z,8.86
2019-04-30T07:10:05.421Z,8.91
2019-04-30T07:13:15.067Z,8.97
2019-04-30T07:16:11.691Z,9.03
2019-04-30T07:19:09.329Z,9.11
2019-04-30T07:22:04.909Z,9.23
2019-04-30T07:25:01.485Z,9.38
2019-04-30T07:27:59.341Z,9.49
2019-04-30T07:31:07.541Z,9.64
2019-04-30T07:33:53.810Z,9.88
2019-04-30T07:36:55.153Z,10.03
2019-04-30T07:39:43.763Z,10.14
2019-04-30T07:42:44.845Z,10.20
2019-04-30T07:45:39.241Z,10.30
2019-04-30T07:48:34.456Z,10.34
2019-04-30T07:51:31.826Z,10.38
2019-04-30T07:54:27.520Z,10.30
2019-04-30T07:57:23.154Z,10.18
2019-04-30T08:00:19.982Z,10.01
2019-04-30T08:03:21.417Z,9.95
2019-04-30T08:06:19.028Z,9.90
2019-04-30T08:09:14.216Z,9.89
2019-04-30T08:12:11.298Z,9.85
2019-04-30T08:15:09.498Z,9.79
2019-04-30T08:18:05.925Z,9.73
2019-04-30T08:21:00.957Z,9.73
2019-04-30T08:24:00.759Z,9.72
2019-04-30T08:26:53.644Z,9.81
2019-04-30T08:29:50.206Z,9.82
2019-04-30T08:32:45.832Z,9.92
2019-04-30T08:35:43.675Z,10.11
2019-04-30T08:38:39.552Z,10.32
2019-04-30T08:41:36.016Z,10.53
2019-04-30T08:44:39.637Z,10.59
2019-04-30T08:47:36.021Z,10.79
2019-04-30T08:50:33.046Z,11.02
2019-04-30T08:53:32.873Z,11.12
2019-04-30T08:56:25.050Z,11.07
2019-04-30T08:59:20.892Z,11.09
2019-04-30T09:02:19.541Z,11.13
2019-04-30T09:05:15.483Z,11.09
2019-04-30T09:08:12.078Z,11.20
2019-04-30T09:11:22.088Z,11.20
2019-04-30T09:14:03.695Z,11.36
2019-04-30T09:17:01.285Z,11.44
2019-04-30T09:19:58.502Z,11.60
2019-04-30T09:22:53.312Z,11.84
2019-04-30T09:25:50.917Z,11.82
2019-04-30T09:28:49.473Z,11.72
2019-04-30T09:31:43.458Z,11.51
2019-04-30T09:34:40.421Z,11.31
2019-04-30T09:37:36.505Z,11.16
2019-04-30T09:40:32.677Z,11.15
2019-04-30T09:43:29.081Z,11.21
2019-04-30T09:46:27.186Z,11.31
2019-04-30T09:49:23.517Z,11.32
2019-04-30T09:52:19.965Z,11.46
2019-04-30T09:55:16.766Z,11.58
2019-04-30T09:58:17.192Z,11.70
2019-04-30T10:01:09.519Z,11.94
2019-04-30T10:04:04.453Z,12.29
2019-04-30T10:07:01.976Z,12.65
2019-04-30T10:09:59.804Z,13.09
2019-04-30T10:12:55.268Z,13.25
2019-04-30T10:16:12.584Z,13.27
2019-04-30T10:19:10.285Z,13.35
2019-04-30T10:22:05.310Z,13.63
2019-04-30T10:25:01.855Z,13.70
2019-04-30T10:28:10.820Z,13.65
2019-04-30T10:31:07.207Z,13.60
2019-04-30T10:34:04.025Z,13.62
2019-04-30T10:37:02.891Z,13.62
2019-04-30T10:39:59.613Z,13.61
2019-04-30T10:42:54.203Z,13.54
2019-04-30T10:45:52.773Z,13.61
2019-04-30T10:48:47.763Z,13.69
2019-04-30T10:51:44.019Z,13.73
2019-04-30T10:54:39.180Z,13.52
2019-04-30T10:57:35.342Z,13.52
2019-04-30T11:00:40.880Z,13.62
2019-04-30T11:03:39.133Z,13.81
2019-04-30T11:06:34.240Z,13.95
2019-04-30T11:09:31.166Z,13.97
2019-04-30T11:12:26.371Z,13.85
2019-04-30T11:15:22.862Z,13.80
2019-04-30T11:18:22.334Z,13.69
2019-04-30T11:21:19.374Z,13.68
2019-04-30T11:24:13.628Z,13.64
2019-04-30T11:27:11.517Z,13.73
2019-04-30T11:30:18.539Z,13.75
2019-04-30T11:33:03.560Z,13.65
2019-04-30T11:36:05.637Z,13.79
2019-04-30T11:39:08.599Z,14.14
2019-04-30T11:42:05.235Z,14.36
2019-04-30T11:45:02.142Z,14.28
2019-04-30T11:48:02.860Z,14.42
2019-04-30T11:51:03.883Z,14.66
2019-04-30T11:53:59.570Z,14.59
2019-04-30T11:56:56.068Z,14.54
2019-04-30T11:59:51.242Z,14.55
2019-04-30T12:02:55.650Z,14.87
2019-04-30T12:05:52.292Z,14.77
2019-04-30T12:09:04.252Z,14.58
2019-04-30T12:12:01.057Z,14.30
2019-04-30T12:14:56.620Z,14.53
2019-04-30T12:17:54.316Z,14.84
2019-04-30T12:20:49.860Z,15.14
2019-04-30T12:23:46.504Z,15.07
2019-04-30T12:26:43.397Z,14.85
2019-04-30T12:29:40.370Z,14.87
2019-04-30T12:32:39.312Z,15.06
2019-04-30T12:35:33.300Z,15.35
2019-04-30T12:38:30.920Z,15.57
2019-04-30T12:41:26.705Z,15.64
2019-04-30T12:44:23.091Z,15.56
2019-04-30T12:47:23.490Z,15.39
2019-04-30T12:50:43.390Z,15.41
2019-04-30T12:53:47.083Z,15.52
2019-04-30T12:56:55.244Z,15.73
2019-04-30T12:59:51.136Z,15.94
2019-04-30T13:02:46.958Z,16.05
2019-04-30T13:05:45.422Z,16.23
2019-04-30T13:08:42.298Z,16.32
2019-04-30T13:11:40.521Z,16.32
2019-04-30T13:14:39.430Z,16.43
2019-04-30T13:17:34.493Z,16.58
2019-04-30T13:20:30.115Z,16.75
2019-04-30T13:23:25.812Z,16.68
2019-04-30T13:26:22.434Z,16.77
2019-04-30T13:29:25.503Z,16.82
2019-04-30T13:32:30.253Z,16.88
2019-04-30T13:35:20.130Z,16.75
2019-04-30T13:38:22.171Z,16.75
2019-04-30T13:41:33.720Z,16.75
2019-04-30T13:44:49.396Z,16.65
2019-04-30T13:47:44.698Z,16.71
2019-04-30T13:50:40.515Z,16.93
2019-04-30T13:53:37.185Z,16.94
2019-04-30T13:56:33.012Z,17.22
2019-04-30T13:59:29.490Z,17.51
2019-04-30T14:02:25.791Z,17.42
2019-04-30T14:05:27.535Z,17.33
2019-04-30T14:08:35.669Z,17.56
2019-04-30T14:11:30.997Z,17.41
2019-04-30T14:14:29.220Z,17.77
2019-04-30T14:17:22.054Z,18.13
2019-04-30T14:20:19.913Z,18.13
2019-04-30T14:23:15.542Z,18.08
2019-04-30T14:26:12.259Z,17.74
2019-04-30T14:29:08.788Z,17.58
2019-04-30T14:32:05.425Z,17.63
2019-04-30T14:35:02.176Z,17.30
2019-04-30T14:37:59.614Z,17.14
2019-04-30T14:40:56.696Z,17.09
2019-04-30T14:43:56.159Z,17.28
2019-04-30T14:47:05.233Z,17.26
2019-04-30T14:50:09.913Z,17.56
2019-04-30T14:53:21.901Z,17.55
2019-04-30T14:56:36.866Z,18.03
2019-04-30T14:59:44.727Z,17.85
2019-04-30T15:02:45.163Z,17.29
2019-04-30T15:05:48.390Z,17.15
2019-04-30T15:08:42.435Z,16.97
2019-04-30T15:11:42.166Z,16.82
2019-04-30T15:14:38.825Z,16.81
2019-04-30T15:17:35.156Z,17.12
2019-04-30T15:20:32.693Z,17.78
2019-04-30T15:23:35.085Z,17.49
2019-04-30T15:26:34.769Z,17.72
2019-04-30T15:29:32.353Z,17.94
2019-04-30T15:32:28.619Z,18.10
2019-04-30T15:35:24.688Z,18.41
2019-04-30T15:38:29.121Z,18.67
2019-04-30T15:41:23.087Z,18.89
2019-04-30T15:44:20.784Z,19.06
2019-04-30T15:47:16.298Z,19.12
2019-04-30T15:50:14.351Z,19.29
2019-04-30T15:53:11.234Z,19.47
2019-04-30T15:56:12.145Z,19.65
2019-04-30T15:59:28.857Z,19.66
2019-04-30T16:02:56.998Z,18.96
2019-04-30T16:05:51.246Z,18.11
2019-04-30T16:08:50.444Z,17.84
2019-04-30T16:12:05.934Z,17.65
2019-04-30T16:15:01.643Z,17.63
2019-04-30T16:17:58.821Z,17.62
2019-04-30T16:20:56.024Z,17.60
2019-04-30T16:23:52.699Z,17.24
2019-04-30T16:26:52.564Z,16.82
2019-04-30T16:29:46.054Z,16.51
2019-04-30T16:32:42.928Z,16.32
2019-04-30T16:35:37.880Z,16.13
2019-04-30T16:38:35.679Z,15.97
2019-04-30T16:41:32.289Z,15.93
2019-04-30T16:44:29.109Z,15.78
2019-04-30T16:47:25.434Z,15.70
2019-04-30T16:50:20.899Z,15.71
2019-04-30T16:53:17.970Z,15.62
2019-04-30T16:56:13.269Z,15.56
2019-04-30T16:59:14.877Z,15.38
2019-04-30T17:02:10.405Z,15.28
2019-04-30T17:05:24.987Z,15.17
2019-04-30T17:08:41.565Z,15.13
2019-04-30T17:11:50.345Z,15.11
2019-04-30T17:14:46.332Z,14.99
2019-04-30T17:17:42.680Z,14.76
2019-04-30T17:20:39.380Z,14.65
2019-04-30T17:23:35.003Z,14.54
2019-04-30T17:26:35.765Z,14.45
2019-04-30T17:29:32.479Z,14.40
2019-04-30T17:32:30.328Z,14.40
2019-04-30T17:35:25.846Z,14.34
2019-04-30T17:38:22.393Z,14.25
2019-04-30T17:41:20.352Z,14.15
2019-04-30T17:44:15.628Z,14.11
2019-04-30T17:47:12.237Z,14.06
2019-04-30T17:50:11.728Z,14.02
2019-04-30T17:53:09.383Z,13.93
2019-04-30T17:56:04.966Z,13.83
2019-04-30T17:59:01.038Z,13.74
2019-04-30T18:02:02.721Z,13.69
2019-04-30T18:05:00.480Z,13.59
2019-04-30T18:07:56.434Z,13.54
2019-04-30T18:10:53.228Z,13.49
2019-04-30T18:13:51.205Z,13.42
2019-04-30T18:16:48.645Z,13.34
2019-04-30T18:19:52.603Z,13.25
2019-04-30T18:23:04.189Z,13.19
2019-04-30T18:26:02.398Z,13.13
2019-04-30T18:28:59.875Z,13.09
2019-04-30T18:31:55.518Z,13.01
2019-04-30T18:34:52.143Z,12.91
2019-04-30T18:37:48.792Z,12.84
2019-04-30T18:40:45.569Z,12.77
2019-04-30T18:43:44.235Z,12.72
2019-04-30T18:46:40.049Z,12.64
2019-04-30T18:49:37.063Z,12.56
2019-04-30T18:52:33.395Z,12.52
2019-04-30T18:55:29.915Z,12.51
2019-04-30T18:58:37.495Z,12.46
2019-04-30T19:01:22.436Z,12.41
2019-04-30T19:04:19.430Z,12.37
2019-04-30T19:07:27.729Z,12.31
2019-04-30T19:10:32.858Z,12.26
2019-04-30T19:13:47.143Z,12.23
2019-04-30T19:16:57.245Z,12.18
2019-04-30T19:20:05.616Z,12.09
2019-04-30T19:23:03.632Z,12.04
2019-04-30T19:25:59.730Z,11.96
2019-04-30T19:28:56.459Z,11.90
2019-04-30T19:31:56.743Z,11.85
2019-04-30T19:34:53.596Z,11.81
2019-04-30T19:37:50.315Z,11.76
2019-04-30T19:40:46.104Z,11.74
2019-04-30T19:43:44.612Z,11.72
2019-04-30T19:46:42.214Z,11.71
2019-04-30T19:49:50.365Z,11.66
2019-04-30T19:52:47.192Z,11.63
2019-04-30T19:55:43.943Z,11.62
2019-04-30T19:58:52.538Z,11.60
2019-04-30T20:01:36.641Z,11.61
2019-04-30T20:04:36.804Z,11.59
2019-04-30T20:07:31.418Z,11.58
2019-04-30T20:10:28.761Z,11.55
2019-04-30T20:13:33.810Z,11.53
2019-04-30T20:16:20.705Z,11.50
2019-04-30T20:19:17.156Z,11.47
2019-04-30T20:22:14.081Z,11.47
2019-04-30T20:25:11.508Z,11.45
2019-04-30T20:28:07.374Z,11.41
2019-04-30T20:31:04.111Z,11.42
2019-04-30T20:34:01.521Z,11.42
2019-04-30T20:36:58.325Z,11.39
2019-04-30T20:40:01.484Z,11.37
2019-04-30T20:42:58.563Z,11.35
2019-04-30T20:45:55.607Z,11.32
2019-04-30T20:48:51.024Z,11.31
2019-04-30T20:51:55.064Z,11.30
2019-04-30T20:54:45.016Z,11.28
2019-04-30T20:57:41.846Z,11.27
2019-04-30T21:00:37.665Z,11.25
2019-04-30T21:03:34.864Z,11.23
2019-04-30T21:06:31.227Z,11.23
2019-04-30T21:09:26.762Z,11.25
2019-04-30T21:12:23.534Z,11.25
2019-04-30T21:15:20.410Z,11.21
2019-04-30T21:18:17.097Z,11.23
2019-04-30T21:21:12.826Z,11.20
2019-04-30T21:24:08.917Z,11.20
2019-04-30T21:27:09.685Z,11.19
2019-04-30T21:30:05.286Z,11.14
2019-04-30T21:33:13.190Z,11.09
2019-04-30T21:36:21.242Z,11.06
2019-04-30T21:39:19.982Z,11.04
2019-04-30T21:42:12.830Z,11.01
2019-04-30T21:45:10.749Z,11.01
2019-04-30T21:48:09.121Z,10.99
2019-04-30T21:51:04.076Z,10.97
2019-04-30T21:54:00.906Z,10.93
2019-04-30T21:56:56.722Z,10.94
2019-04-30T21:59:53.444Z,10.93
2019-04-30T22:02:50.059Z,10.88
2019-04-30T22:05:46.595Z,10.88
2019-04-30T22:08:42.200Z,10.86
2019-04-30T22:11:42.743Z,10.86
2019-04-30T22:14:39.069Z,10.83
2019-04-30T22:17:34.934Z,10.80
2019-04-30T22:20:31.750Z,10.80
2019-04-30T22:23:28.448Z,10.78
2019-04-30T22:26:26.528Z,10.72
2019-04-30T22:29:22.416Z,10.67
2019-04-30T22:32:18.091Z,10.64
2019-04-30T22:35:32.271Z,10.57
2019-04-30T22:38:29.501Z,10.46
2019-04-30T22:41:26.234Z,10.27
2019-04-30T22:44:21.858Z,10.27
2019-04-30T22:47:25.533Z,10.19
2019-04-30T22:50:22.717Z,10.13
2019-04-30T22:53:17.593Z,10.06
2019-04-30T22:56:15.256Z,10.02
2019-04-30T22:59:10.850Z,9.97
2019-04-30T23:02:24.527Z,9.89
2019-04-30T23:05:21.382Z,9.83
2019-04-30T23:08:17.860Z,9.73
2019-04-30T23:11:14.463Z,9.67
2019-04-30T23:14:10.068Z,9.60
2019-04-30T23:17:07.553Z,9.54
2019-04-30T23:20:03.279Z,9.47
2019-04-30T23:23:00.129Z,9.40
2019-04-30T23:25:55.207Z,9.37
2019-04-30T23:28:51.712Z,9.32
2019-04-30T23:31:48.481Z,9.26
2019-04-30T23:34:44.015Z,9.21
2019-04-30T23:37:41.799Z,9.15
2019-04-30T23:40:42.636Z,9.12
2019-04-30T23:43:39.283Z,9.07
2019-04-30T23:46:38.274Z,9.02
2019-04-30T23:49:35.149Z,8.97
2019-04-30T23:52:31.961Z,8.90
2019-04-30T23:55:27.677Z,8.86
2019-04-30T23:58:25.518Z,8.84
